sensor_id;sensor_type;location;lat;lon;timestamp;P1;durP1;ratioP1;P2;durP2;ratioP2
4646;SDS011;2336;47.822;7.564;2023-01-19T00:01:35;14.40;;;12.03;;
4646;SDS011;2336;47.822;7.564;2023-01-19T00:04:02;13.85;;;12.55;;
4646;SDS011;2336;47.822;7.564;2023-01-19T00:06:28;13.57;;;12.17;;
4646;SDS011;2336;47.822;7.564;2023-01-19T00:08:55;14.65;;;13.10;;
4646;SDS011;2336;47.822;7.564;2023-01-19T00:11:23;15.85;;;12.40;;
4646;SDS011;2336;47.822;7.564;2023-01-19T00:13:50;15.40;;;11.43;;
4646;SDS011;2336;47.822;7.564;2023-01-19T00:16:18;16.43;;;13.00;;
4646;SDS011;2336;47.822;7.564;2023-01-19T00:18:46;15.23;;;12.60;;
4646;SDS011;2336;47.822;7.564;2023-01-19T00:21:15;16.60;;;12.93;;
4646;SDS011;2336;47.822;7.564;2023-01-19T00:23:42;14.80;;;12.98;;
4646;SDS011;2336;47.822;7.564;2023-01-19T00:26:11;15.00;;;12.43;;
4646;SDS011;2336;47.822;7.564;2023-01-19T00:28:41;14.93;;;13.33;;
4646;SDS011;2336;47.822;7.564;2023-01-19T00:31:08;14.37;;;12.90;;
4646;SDS011;2336;47.822;7.564;2023-01-19T00:33:35;15.40;;;13.45;;
4646;SDS011;2336;47.822;7.564;2023-01-19T00:36:02;13.40;;;12.10;;
4646;SDS011;2336;47.822;7.564;2023-01-19T00:38:29;14.77;;;12.17;;
4646;SDS011;2336;47.822;7.564;2023-01-19T00:40:56;13.80;;;12.00;;
4646;SDS011;2336;47.822;7.564;2023-01-19T00:43:23;15.10;;;12.00;;
4646;SDS011;2336;47.822;7.564;2023-01-19T00:45:50;14.10;;;11.63;;
4646;SDS011;2336;47.822;7.564;2023-01-19T00:48:17;13.30;;;12.00;;
4646;SDS011;2336;47.822;7.564;2023-01-19T00:50:44;15.10;;;12.23;;
4646;SDS011;2336;47.822;7.564;2023-01-19T00:53:10;12.97;;;11.57;;
4646;SDS011;2336;47.822;7.564;2023-01-19T00:55:37;13.60;;;11.67;;
4646;SDS011;2336;47.822;7.564;2023-01-19T00:58:04;16.33;;;11.37;;
4646;SDS011;2336;47.822;7.564;2023-01-19T01:00:31;16.53;;;13.33;;
4646;SDS011;2336;47.822;7.564;2023-01-19T01:02:59;14.00;;;12.00;;
4646;SDS011;2336;47.822;7.564;2023-01-19T01:05:26;12.77;;;11.47;;
4646;SDS011;2336;47.822;7.564;2023-01-19T01:07:53;16.05;;;12.00;;
4646;SDS011;2336;47.822;7.564;2023-01-19T01:10:20;13.55;;;11.65;;
4646;SDS011;2336;47.822;7.564;2023-01-19T01:12:49;15.00;;;11.93;;
4646;SDS011;2336;47.822;7.564;2023-01-19T01:15:17;13.50;;;10.63;;
4646;SDS011;2336;47.822;7.564;2023-01-19T01:17:44;13.98;;;11.35;;
4646;SDS011;2336;47.822;7.564;2023-01-19T01:20:14;15.23;;;11.00;;
4646;SDS011;2336;47.822;7.564;2023-01-19T01:22:45;13.07;;;11.30;;
4646;SDS011;2336;47.822;7.564;2023-01-19T01:25:14;11.93;;;10.63;;
4646;SDS011;2336;47.822;7.564;2023-01-19T01:27:42;14.23;;;10.60;;
4646;SDS011;2336;47.822;7.564;2023-01-19T01:30:10;11.87;;;10.63;;
4646;SDS011;2336;47.822;7.564;2023-01-19T01:32:38;12.35;;;11.07;;
4646;SDS011;2336;47.822;7.564;2023-01-19T01:35:06;11.95;;;10.70;;
4646;SDS011;2336;47.822;7.564;2023-01-19T01:37:35;15.77;;;11.37;;
4646;SDS011;2336;47.822;7.564;2023-01-19T01:40:02;12.27;;;10.07;;
4646;SDS011;2336;47.822;7.564;2023-01-19T01:42:31;11.63;;;9.97;;
4646;SDS011;2336;47.822;7.564;2023-01-19T01:44:59;11.70;;;10.60;;
4646;SDS011;2336;47.822;7.564;2023-01-19T01:47:28;11.93;;;10.73;;
4646;SDS011;2336;47.822;7.564;2023-01-19T01:50:02;12.33;;;11.13;;
4646;SDS011;2336;47.822;7.564;2023-01-19T01:52:33;12.00;;;10.10;;
4646;SDS011;2336;47.822;7.564;2023-01-19T01:55:05;12.10;;;10.90;;
4646;SDS011;2336;47.822;7.564;2023-01-19T01:57:35;14.40;;;12.00;;
4646;SDS011;2336;47.822;7.564;2023-01-19T02:00:04;12.03;;;10.73;;
4646;SDS011;2336;47.822;7.564;2023-01-19T02:02:32;14.20;;;12.17;;
4646;SDS011;2336;47.822;7.564;2023-01-19T02:05:16;11.23;;;10.10;;
4646;SDS011;2336;47.822;7.564;2023-01-19T02:07:48;13.60;;;11.50;;
4646;SDS011;2336;47.822;7.564;2023-01-19T02:10:37;12.60;;;10.30;;
4646;SDS011;2336;47.822;7.564;2023-01-19T02:13:21;12.63;;;11.23;;
4646;SDS011;2336;47.822;7.564;2023-01-19T02:15:50;12.53;;;10.40;;
4646;SDS011;2336;47.822;7.564;2023-01-19T02:18:18;11.43;;;10.20;;
4646;SDS011;2336;47.822;7.564;2023-01-19T02:20:49;16.43;;;11.27;;
4646;SDS011;2336;47.822;7.564;2023-01-19T02:26:06;11.10;;;10.00;;
4646;SDS011;2336;47.822;7.564;2023-01-19T02:28:35;11.83;;;10.63;;
4646;SDS011;2336;47.822;7.564;2023-01-19T02:31:04;12.97;;;10.77;;
4646;SDS011;2336;47.822;7.564;2023-01-19T02:33:31;11.07;;;9.90;;
4646;SDS011;2336;47.822;7.564;2023-01-19T02:35:57;12.93;;;11.30;;
4646;SDS011;2336;47.822;7.564;2023-01-19T02:38:26;12.37;;;11.13;;
4646;SDS011;2336;47.822;7.564;2023-01-19T02:40:55;13.97;;;12.07;;
4646;SDS011;2336;47.822;7.564;2023-01-19T02:43:24;13.87;;;11.90;;
4646;SDS011;2336;47.822;7.564;2023-01-19T02:45:53;12.27;;;10.97;;
4646;SDS011;2336;47.822;7.564;2023-01-19T02:48:20;11.97;;;10.70;;
4646;SDS011;2336;47.822;7.564;2023-01-19T02:50:47;12.33;;;10.93;;
4646;SDS011;2336;47.822;7.564;2023-01-19T02:53:25;11.30;;;10.20;;
4646;SDS011;2336;47.822;7.564;2023-01-19T02:56:21;9.43;;;8.63;;
4646;SDS011;2336;47.822;7.564;2023-01-19T02:59:00;11.97;;;10.17;;
4646;SDS011;2336;47.822;7.564;2023-01-19T03:01:33;10.70;;;9.67;;
4646;SDS011;2336;47.822;7.564;2023-01-19T03:04:10;12.00;;;10.80;;
4646;SDS011;2336;47.822;7.564;2023-01-19T03:06:43;11.68;;;10.20;;
4646;SDS011;2336;47.822;7.564;2023-01-19T03:09:16;14.53;;;10.67;;
4646;SDS011;2336;47.822;7.564;2023-01-19T03:11:53;11.88;;;10.68;;
4646;SDS011;2336;47.822;7.564;2023-01-19T03:14:27;10.83;;;9.73;;
4646;SDS011;2336;47.822;7.564;2023-01-19T03:16:56;12.75;;;10.27;;
4646;SDS011;2336;47.822;7.564;2023-01-19T03:19:26;13.73;;;10.13;;
4646;SDS011;2336;47.822;7.564;2023-01-19T03:21:57;12.50;;;10.40;;
4646;SDS011;2336;47.822;7.564;2023-01-19T03:24:27;10.93;;;9.82;;
4646;SDS011;2336;47.822;7.564;2023-01-19T03:26:58;10.77;;;9.77;;
4646;SDS011;2336;47.822;7.564;2023-01-19T03:29:28;11.50;;;10.40;;
4646;SDS011;2336;47.822;7.564;2023-01-19T03:31:59;13.57;;;9.70;;
4646;SDS011;2336;47.822;7.564;2023-01-19T03:34:31;12.70;;;10.73;;
4646;SDS011;2336;47.822;7.564;2023-01-19T03:37:01;13.70;;;10.63;;
4646;SDS011;2336;47.822;7.564;2023-01-19T03:39:29;15.67;;;11.00;;
4646;SDS011;2336;47.822;7.564;2023-01-19T03:41:58;13.20;;;10.50;;
4646;SDS011;2336;47.822;7.564;2023-01-19T03:44:28;11.87;;;10.10;;
4646;SDS011;2336;47.822;7.564;2023-01-19T03:46:56;13.52;;;10.30;;
4646;SDS011;2336;47.822;7.564;2023-01-19T03:49:24;10.90;;;9.77;;
4646;SDS011;2336;47.822;7.564;2023-01-19T03:51:53;10.23;;;8.83;;
4646;SDS011;2336;47.822;7.564;2023-01-19T03:54:20;11.50;;;8.23;;
4646;SDS011;2336;47.822;7.564;2023-01-19T03:56:47;8.47;;;6.80;;
4646;SDS011;2336;47.822;7.564;2023-01-19T03:59:15;7.67;;;6.83;;
4646;SDS011;2336;47.822;7.564;2023-01-19T04:01:44;8.30;;;7.50;;
4646;SDS011;2336;47.822;7.564;2023-01-19T04:04:10;9.30;;;7.87;;
4646;SDS011;2336;47.822;7.564;2023-01-19T04:06:39;7.47;;;6.83;;
4646;SDS011;2336;47.822;7.564;2023-01-19T04:09:06;6.90;;;6.30;;
4646;SDS011;2336;47.822;7.564;2023-01-19T04:11:33;7.53;;;6.80;;
4646;SDS011;2336;47.822;7.564;2023-01-19T04:14:00;10.80;;;7.97;;
4646;SDS011;2336;47.822;7.564;2023-01-19T04:16:28;8.07;;;7.40;;
4646;SDS011;2336;47.822;7.564;2023-01-19T04:18:55;8.70;;;7.60;;
4646;SDS011;2336;47.822;7.564;2023-01-19T04:21:21;9.13;;;8.13;;
4646;SDS011;2336;47.822;7.564;2023-01-19T04:23:48;7.90;;;7.20;;
4646;SDS011;2336;47.822;7.564;2023-01-19T04:26:15;7.70;;;7.10;;
4646;SDS011;2336;47.822;7.564;2023-01-19T04:28:42;7.27;;;6.57;;
4646;SDS011;2336;47.822;7.564;2023-01-19T04:31:08;7.63;;;7.00;;
4646;SDS011;2336;47.822;7.564;2023-01-19T04:33:36;7.25;;;6.70;;
4646;SDS011;2336;47.822;7.564;2023-01-19T04:36:03;7.47;;;6.77;;
4646;SDS011;2336;47.822;7.564;2023-01-19T04:38:31;7.60;;;6.90;;
4646;SDS011;2336;47.822;7.564;2023-01-19T04:40:57;7.40;;;6.87;;
4646;SDS011;2336;47.822;7.564;2023-01-19T04:43:24;6.80;;;6.30;;
4646;SDS011;2336;47.822;7.564;2023-01-19T04:45:51;7.90;;;7.30;;
4646;SDS011;2336;47.822;7.564;2023-01-19T04:48:17;9.97;;;7.37;;
4646;SDS011;2336;47.822;7.564;2023-01-19T04:50:45;8.27;;;7.47;;
4646;SDS011;2336;47.822;7.564;2023-01-19T04:53:12;7.93;;;7.23;;
4646;SDS011;2336;47.822;7.564;2023-01-19T04:55:40;7.13;;;6.53;;
4646;SDS011;2336;47.822;7.564;2023-01-19T04:58:07;7.70;;;7.00;;
4646;SDS011;2336;47.822;7.564;2023-01-19T05:00:34;8.10;;;7.40;;
4646;SDS011;2336;47.822;7.564;2023-01-19T05:03:01;6.73;;;6.13;;
4646;SDS011;2336;47.822;7.564;2023-01-19T05:05:28;7.22;;;6.68;;
4646;SDS011;2336;47.822;7.564;2023-01-19T05:07:58;7.33;;;6.23;;
4646;SDS011;2336;47.822;7.564;2023-01-19T05:10:25;8.00;;;7.30;;
4646;SDS011;2336;47.822;7.564;2023-01-19T05:12:52;7.10;;;6.60;;
4646;SDS011;2336;47.822;7.564;2023-01-19T05:15:18;7.25;;;6.70;;
4646;SDS011;2336;47.822;7.564;2023-01-19T05:17:45;8.10;;;7.33;;
4646;SDS011;2336;47.822;7.564;2023-01-19T05:20:12;7.30;;;6.70;;
4646;SDS011;2336;47.822;7.564;2023-01-19T05:22:39;7.80;;;7.03;;
4646;SDS011;2336;47.822;7.564;2023-01-19T05:25:07;7.95;;;7.20;;
4646;SDS011;2336;47.822;7.564;2023-01-19T05:27:34;7.57;;;6.90;;
4646;SDS011;2336;47.822;7.564;2023-01-19T05:30:02;8.70;;;7.80;;
4646;SDS011;2336;47.822;7.564;2023-01-19T05:32:29;8.10;;;7.40;;
4646;SDS011;2336;47.822;7.564;2023-01-19T05:34:56;8.03;;;7.33;;
4646;SDS011;2336;47.822;7.564;2023-01-19T05:37:23;7.93;;;7.28;;
4646;SDS011;2336;47.822;7.564;2023-01-19T05:39:50;7.00;;;6.50;;
4646;SDS011;2336;47.822;7.564;2023-01-19T05:42:18;7.90;;;7.22;;
4646;SDS011;2336;47.822;7.564;2023-01-19T05:44:44;10.65;;;8.68;;
4646;SDS011;2336;47.822;7.564;2023-01-19T05:47:11;9.80;;;8.90;;
4646;SDS011;2336;47.822;7.564;2023-01-19T05:49:38;8.27;;;7.60;;
4646;SDS011;2336;47.822;7.564;2023-01-19T05:52:04;7.67;;;6.63;;
4646;SDS011;2336;47.822;7.564;2023-01-19T05:54:31;7.57;;;6.83;;
4646;SDS011;2336;47.822;7.564;2023-01-19T05:56:58;8.43;;;7.60;;
4646;SDS011;2336;47.822;7.564;2023-01-19T05:59:26;7.30;;;6.70;;
4646;SDS011;2336;47.822;7.564;2023-01-19T06:01:53;6.90;;;6.30;;
4646;SDS011;2336;47.822;7.564;2023-01-19T06:04:21;7.72;;;7.03;;
4646;SDS011;2336;47.822;7.564;2023-01-19T06:06:47;8.13;;;7.30;;
4646;SDS011;2336;47.822;7.564;2023-01-19T06:09:15;8.65;;;7.82;;
4646;SDS011;2336;47.822;7.564;2023-01-19T06:11:42;10.10;;;7.00;;
4646;SDS011;2336;47.822;7.564;2023-01-19T06:14:09;7.72;;;7.03;;
4646;SDS011;2336;47.822;7.564;2023-01-19T06:16:37;8.32;;;7.47;;
4646;SDS011;2336;47.822;7.564;2023-01-19T06:19:04;7.55;;;6.85;;
4646;SDS011;2336;47.822;7.564;2023-01-19T06:21:30;8.00;;;7.07;;
4646;SDS011;2336;47.822;7.564;2023-01-19T06:23:58;7.22;;;6.63;;
4646;SDS011;2336;47.822;7.564;2023-01-19T06:26:25;7.47;;;6.82;;
4646;SDS011;2336;47.822;7.564;2023-01-19T06:28:51;6.70;;;6.20;;
4646;SDS011;2336;47.822;7.564;2023-01-19T06:31:18;6.93;;;6.43;;
4646;SDS011;2336;47.822;7.564;2023-01-19T06:33:46;7.25;;;6.65;;
4646;SDS011;2336;47.822;7.564;2023-01-19T06:36:13;9.17;;;8.20;;
4646;SDS011;2336;47.822;7.564;2023-01-19T06:38:39;6.93;;;6.30;;
4646;SDS011;2336;47.822;7.564;2023-01-19T06:41:06;8.30;;;7.15;;
4646;SDS011;2336;47.822;7.564;2023-01-19T06:43:33;8.30;;;7.40;;
4646;SDS011;2336;47.822;7.564;2023-01-19T06:46:00;8.83;;;7.90;;
4646;SDS011;2336;47.822;7.564;2023-01-19T06:48:27;8.70;;;8.00;;
4646;SDS011;2336;47.822;7.564;2023-01-19T06:50:55;8.55;;;7.70;;
4646;SDS011;2336;47.822;7.564;2023-01-19T06:53:22;8.30;;;7.55;;
4646;SDS011;2336;47.822;7.564;2023-01-19T06:55:51;7.55;;;6.85;;
4646;SDS011;2336;47.822;7.564;2023-01-19T06:58:18;9.00;;;6.40;;
4646;SDS011;2336;47.822;7.564;2023-01-19T07:00:45;10.35;;;8.65;;
4646;SDS011;2336;47.822;7.564;2023-01-19T07:03:16;10.07;;;8.98;;
4646;SDS011;2336;47.822;7.564;2023-01-19T07:05:44;9.17;;;8.30;;
4646;SDS011;2336;47.822;7.564;2023-01-19T07:08:15;9.25;;;7.93;;
4646;SDS011;2336;47.822;7.564;2023-01-19T07:10:42;14.43;;;10.43;;
4646;SDS011;2336;47.822;7.564;2023-01-19T07:13:08;12.40;;;10.20;;
4646;SDS011;2336;47.822;7.564;2023-01-19T07:15:35;23.25;;;19.02;;
4646;SDS011;2336;47.822;7.564;2023-01-19T07:18:02;11.27;;;10.15;;
4646;SDS011;2336;47.822;7.564;2023-01-19T07:20:31;11.57;;;9.50;;
4646;SDS011;2336;47.822;7.564;2023-01-19T07:22:58;8.77;;;7.85;;
4646;SDS011;2336;47.822;7.564;2023-01-19T07:25:26;36.65;;;28.00;;
4646;SDS011;2336;47.822;7.564;2023-01-19T07:27:55;18.50;;;14.90;;
4646;SDS011;2336;47.822;7.564;2023-01-19T07:30:22;24.50;;;21.30;;
4646;SDS011;2336;47.822;7.564;2023-01-19T07:32:49;13.90;;;12.45;;
4646;SDS011;2336;47.822;7.564;2023-01-19T07:35:15;57.63;;;42.30;;
4646;SDS011;2336;47.822;7.564;2023-01-19T07:37:42;21.70;;;17.67;;
4646;SDS011;2336;47.822;7.564;2023-01-19T07:40:09;20.03;;;17.70;;
4646;SDS011;2336;47.822;7.564;2023-01-19T07:42:38;20.80;;;15.13;;
4646;SDS011;2336;47.822;7.564;2023-01-19T07:45:05;18.20;;;16.40;;
4646;SDS011;2336;47.822;7.564;2023-01-19T07:47:32;21.02;;;17.98;;
4646;SDS011;2336;47.822;7.564;2023-01-19T07:49:59;19.27;;;17.17;;
4646;SDS011;2336;47.822;7.564;2023-01-19T07:52:25;17.13;;;14.70;;
4646;SDS011;2336;47.822;7.564;2023-01-19T07:54:52;15.80;;;14.03;;
4646;SDS011;2336;47.822;7.564;2023-01-19T07:57:19;17.80;;;15.90;;
4646;SDS011;2336;47.822;7.564;2023-01-19T07:59:47;20.33;;;17.53;;
4646;SDS011;2336;47.822;7.564;2023-01-19T08:02:14;16.10;;;14.60;;
4646;SDS011;2336;47.822;7.564;2023-01-19T08:04:40;14.05;;;11.75;;
4646;SDS011;2336;47.822;7.564;2023-01-19T08:07:07;16.17;;;13.38;;
4646;SDS011;2336;47.822;7.564;2023-01-19T08:09:34;13.33;;;12.20;;
4646;SDS011;2336;47.822;7.564;2023-01-19T08:12:01;13.93;;;12.40;;
4646;SDS011;2336;47.822;7.564;2023-01-19T08:14:28;19.77;;;16.47;;
4646;SDS011;2336;47.822;7.564;2023-01-19T08:16:58;10.02;;;9.13;;
4646;SDS011;2336;47.822;7.564;2023-01-19T08:19:25;13.00;;;11.10;;
4646;SDS011;2336;47.822;7.564;2023-01-19T08:21:52;9.70;;;8.83;;
4646;SDS011;2336;47.822;7.564;2023-01-19T08:24:20;11.03;;;9.97;;
4646;SDS011;2336;47.822;7.564;2023-01-19T08:26:50;12.63;;;11.07;;
4646;SDS011;2336;47.822;7.564;2023-01-19T08:29:23;13.43;;;12.13;;
4646;SDS011;2336;47.822;7.564;2023-01-19T08:31:50;15.43;;;12.67;;
4646;SDS011;2336;47.822;7.564;2023-01-19T08:34:20;16.23;;;14.00;;
4646;SDS011;2336;47.822;7.564;2023-01-19T08:36:47;16.47;;;13.27;;
4646;SDS011;2336;47.822;7.564;2023-01-19T08:39:14;10.30;;;9.30;;
4646;SDS011;2336;47.822;7.564;2023-01-19T08:41:42;8.60;;;7.80;;
4646;SDS011;2336;47.822;7.564;2023-01-19T08:44:08;11.17;;;10.10;;
4646;SDS011;2336;47.822;7.564;2023-01-19T08:46:35;8.07;;;7.37;;
4646;SDS011;2336;47.822;7.564;2023-01-19T08:49:02;8.13;;;7.40;;
4646;SDS011;2336;47.822;7.564;2023-01-19T08:51:30;6.87;;;6.33;;
4646;SDS011;2336;47.822;7.564;2023-01-19T08:53:56;5.70;;;5.30;;
4646;SDS011;2336;47.822;7.564;2023-01-19T08:56:23;7.07;;;6.23;;
4646;SDS011;2336;47.822;7.564;2023-01-19T08:58:50;7.47;;;6.93;;
4646;SDS011;2336;47.822;7.564;2023-01-19T09:01:16;7.17;;;6.57;;
4646;SDS011;2336;47.822;7.564;2023-01-19T09:03:44;6.63;;;6.03;;
4646;SDS011;2336;47.822;7.564;2023-01-19T09:06:12;6.63;;;6.03;;
4646;SDS011;2336;47.822;7.564;2023-01-19T09:08:42;21.60;;;13.10;;
4646;SDS011;2336;47.822;7.564;2023-01-19T09:11:09;11.77;;;9.03;;
4646;SDS011;2336;47.822;7.564;2023-01-19T09:13:36;15.23;;;8.47;;
4646;SDS011;2336;47.822;7.564;2023-01-19T09:16:03;7.80;;;6.67;;
4646;SDS011;2336;47.822;7.564;2023-01-19T09:18:31;7.90;;;7.30;;
4646;SDS011;2336;47.822;7.564;2023-01-19T09:20:59;15.33;;;13.80;;
4646;SDS011;2336;47.822;7.564;2023-01-19T09:23:26;16.27;;;13.80;;
4646;SDS011;2336;47.822;7.564;2023-01-19T09:25:56;14.47;;;10.60;;
4646;SDS011;2336;47.822;7.564;2023-01-19T09:28:24;13.23;;;11.20;;
4646;SDS011;2336;47.822;7.564;2023-01-19T09:30:51;6.17;;;5.67;;
4646;SDS011;2336;47.822;7.564;2023-01-19T09:33:18;6.93;;;6.23;;
4646;SDS011;2336;47.822;7.564;2023-01-19T09:35:46;6.10;;;5.50;;
4646;SDS011;2336;47.822;7.564;2023-01-19T09:38:16;6.40;;;5.80;;
4646;SDS011;2336;47.822;7.564;2023-01-19T09:40:44;8.43;;;5.50;;
4646;SDS011;2336;47.822;7.564;2023-01-19T09:43:17;8.80;;;7.43;;
4646;SDS011;2336;47.822;7.564;2023-01-19T09:45:51;9.20;;;8.30;;
4646;SDS011;2336;47.822;7.564;2023-01-19T09:48:24;9.63;;;8.63;;
4646;SDS011;2336;47.822;7.564;2023-01-19T09:50:56;10.93;;;8.30;;
4646;SDS011;2336;47.822;7.564;2023-01-19T09:53:30;13.60;;;10.47;;
4646;SDS011;2336;47.822;7.564;2023-01-19T09:56:07;7.87;;;7.03;;
4646;SDS011;2336;47.822;7.564;2023-01-19T09:58:37;7.10;;;6.40;;
4646;SDS011;2336;47.822;7.564;2023-01-19T10:01:06;9.73;;;8.83;;
4646;SDS011;2336;47.822;7.564;2023-01-19T10:03:46;6.53;;;5.83;;
4646;SDS011;2336;47.822;7.564;2023-01-19T10:06:19;8.60;;;7.90;;
4646;SDS011;2336;47.822;7.564;2023-01-19T10:08:50;12.80;;;11.40;;
4646;SDS011;2336;47.822;7.564;2023-01-19T10:11:29;7.53;;;6.90;;
4646;SDS011;2336;47.822;7.564;2023-01-19T10:14:02;7.90;;;7.30;;
4646;SDS011;2336;47.822;7.564;2023-01-19T10:16:39;6.63;;;6.20;;
4646;SDS011;2336;47.822;7.564;2023-01-19T10:19:15;7.07;;;6.37;;
4646;SDS011;2336;47.822;7.564;2023-01-19T10:21:48;6.43;;;5.93;;
4646;SDS011;2336;47.822;7.564;2023-01-19T10:24:17;6.13;;;5.53;;
4646;SDS011;2336;47.822;7.564;2023-01-19T10:26:49;5.40;;;5.10;;
4646;SDS011;2336;47.822;7.564;2023-01-19T10:29:20;5.40;;;4.90;;
4646;SDS011;2336;47.822;7.564;2023-01-19T10:31:50;6.07;;;5.67;;
4646;SDS011;2336;47.822;7.564;2023-01-19T10:34:18;6.00;;;5.60;;
4646;SDS011;2336;47.822;7.564;2023-01-19T10:36:46;5.93;;;5.53;;
4646;SDS011;2336;47.822;7.564;2023-01-19T10:39:14;6.00;;;5.50;;
4646;SDS011;2336;47.822;7.564;2023-01-19T10:41:46;6.37;;;5.77;;
4646;SDS011;2336;47.822;7.564;2023-01-19T10:44:23;9.17;;;8.10;;
4646;SDS011;2336;47.822;7.564;2023-01-19T10:46:51;9.30;;;6.80;;
4646;SDS011;2336;47.822;7.564;2023-01-19T10:49:23;7.33;;;6.73;;
4646;SDS011;2336;47.822;7.564;2023-01-19T10:51:52;9.00;;;8.07;;
4646;SDS011;2336;47.822;7.564;2023-01-19T10:54:20;11.90;;;7.60;;
4646;SDS011;2336;47.822;7.564;2023-01-19T10:56:52;34.60;;;24.20;;
4646;SDS011;2336;47.822;7.564;2023-01-19T10:59:32;9.10;;;8.20;;
4646;SDS011;2336;47.822;7.564;2023-01-19T11:02:02;10.93;;;9.93;;
4646;SDS011;2336;47.822;7.564;2023-01-19T11:04:42;10.13;;;9.20;;
4646;SDS011;2336;47.822;7.564;2023-01-19T11:07:12;5.90;;;5.40;;
4646;SDS011;2336;47.822;7.564;2023-01-19T11:09:40;8.47;;;7.60;;
4646;SDS011;2336;47.822;7.564;2023-01-19T11:12:14;6.23;;;5.83;;
4646;SDS011;2336;47.822;7.564;2023-01-19T11:14:43;7.43;;;6.83;;
4646;SDS011;2336;47.822;7.564;2023-01-19T11:17:15;7.40;;;6.80;;
4646;SDS011;2336;47.822;7.564;2023-01-19T11:19:51;9.27;;;7.60;;
4646;SDS011;2336;47.822;7.564;2023-01-19T11:22:19;6.07;;;5.20;;
4646;SDS011;2336;47.822;7.564;2023-01-19T11:24:51;7.50;;;6.87;;
4646;SDS011;2336;47.822;7.564;2023-01-19T11:27:18;6.67;;;6.07;;
4646;SDS011;2336;47.822;7.564;2023-01-19T11:29:48;5.53;;;5.10;;
4646;SDS011;2336;47.822;7.564;2023-01-19T11:32:19;8.00;;;6.73;;
4646;SDS011;2336;47.822;7.564;2023-01-19T11:34:47;5.30;;;5.00;;
4646;SDS011;2336;47.822;7.564;2023-01-19T11:37:25;9.13;;;8.23;;
4646;SDS011;2336;47.822;7.564;2023-01-19T11:39:54;12.33;;;11.10;;
4646;SDS011;2336;47.822;7.564;2023-01-19T11:42:23;6.37;;;5.87;;
4646;SDS011;2336;47.822;7.564;2023-01-19T11:44:54;6.47;;;5.97;;
4646;SDS011;2336;47.822;7.564;2023-01-19T11:47:26;6.23;;;5.53;;
4646;SDS011;2336;47.822;7.564;2023-01-19T11:49:57;6.77;;;6.23;;
4646;SDS011;2336;47.822;7.564;2023-01-19T11:52:27;6.87;;;6.37;;
4646;SDS011;2336;47.822;7.564;2023-01-19T11:54:59;7.70;;;6.00;;
4646;SDS011;2336;47.822;7.564;2023-01-19T11:57:31;9.60;;;7.00;;
4646;SDS011;2336;47.822;7.564;2023-01-19T12:00:00;6.77;;;6.17;;
4646;SDS011;2336;47.822;7.564;2023-01-19T12:02:30;7.73;;;7.00;;
4646;SDS011;2336;47.822;7.564;2023-01-19T12:05:08;5.20;;;4.80;;
4646;SDS011;2336;47.822;7.564;2023-01-19T12:07:39;6.77;;;6.20;;
4646;SDS011;2336;47.822;7.564;2023-01-19T12:10:13;6.00;;;5.40;;
4646;SDS011;2336;47.822;7.564;2023-01-19T12:12:47;6.67;;;5.60;;
4646;SDS011;2336;47.822;7.564;2023-01-19T12:15:18;5.60;;;5.20;;
4646;SDS011;2336;47.822;7.564;2023-01-19T12:17:48;6.20;;;5.80;;
4646;SDS011;2336;47.822;7.564;2023-01-19T12:20:19;7.10;;;5.97;;
4646;SDS011;2336;47.822;7.564;2023-01-19T12:22:52;5.90;;;5.30;;
4646;SDS011;2336;47.822;7.564;2023-01-19T12:25:23;6.23;;;5.80;;
4646;SDS011;2336;47.822;7.564;2023-01-19T12:27:55;7.17;;;6.50;;
4646;SDS011;2336;47.822;7.564;2023-01-19T12:30:25;6.27;;;5.67;;
4646;SDS011;2336;47.822;7.564;2023-01-19T12:38:38;6.43;;;5.93;;
4646;SDS011;2336;47.822;7.564;2023-01-19T12:44:13;8.23;;;6.20;;
4646;SDS011;2336;47.822;7.564;2023-01-19T12:46:46;6.27;;;5.50;;
4646;SDS011;2336;47.822;7.564;2023-01-19T12:49:23;6.80;;;6.30;;
4646;SDS011;2336;47.822;7.564;2023-01-19T12:51:53;6.90;;;6.30;;
4646;SDS011;2336;47.822;7.564;2023-01-19T12:54:36;6.50;;;5.80;;
4646;SDS011;2336;47.822;7.564;2023-01-19T12:57:13;6.40;;;5.70;;
4646;SDS011;2336;47.822;7.564;2023-01-19T12:59:44;7.10;;;5.90;;
4646;SDS011;2336;47.822;7.564;2023-01-19T13:02:40;6.20;;;5.60;;
4646;SDS011;2336;47.822;7.564;2023-01-19T13:05:11;5.40;;;5.00;;
4646;SDS011;2336;47.822;7.564;2023-01-19T13:08:12;6.40;;;5.90;;
4646;SDS011;2336;47.822;7.564;2023-01-19T13:10:51;5.60;;;5.20;;
4646;SDS011;2336;47.822;7.564;2023-01-19T13:13:20;6.40;;;5.90;;
4646;SDS011;2336;47.822;7.564;2023-01-19T13:15:49;7.17;;;6.57;;
4646;SDS011;2336;47.822;7.564;2023-01-19T13:18:17;6.33;;;5.83;;
4646;SDS011;2336;47.822;7.564;2023-01-19T13:20:47;7.73;;;6.43;;
4646;SDS011;2336;47.822;7.564;2023-01-19T13:23:23;8.00;;;6.70;;
4646;SDS011;2336;47.822;7.564;2023-01-19T13:26:01;9.13;;;6.70;;
4646;SDS011;2336;47.822;7.564;2023-01-19T13:28:31;10.23;;;6.10;;
4646;SDS011;2336;47.822;7.564;2023-01-19T13:31:02;6.17;;;5.63;;
4646;SDS011;2336;47.822;7.564;2023-01-19T13:33:34;8.50;;;6.60;;
4646;SDS011;2336;47.822;7.564;2023-01-19T13:36:13;7.60;;;6.23;;
4646;SDS011;2336;47.822;7.564;2023-01-19T13:38:46;4.57;;;4.27;;
4646;SDS011;2336;47.822;7.564;2023-01-19T13:41:14;5.00;;;4.57;;
4646;SDS011;2336;47.822;7.564;2023-01-19T13:43:43;4.40;;;4.20;;
4646;SDS011;2336;47.822;7.564;2023-01-19T13:46:10;4.80;;;4.40;;
4646;SDS011;2336;47.822;7.564;2023-01-19T13:48:40;5.47;;;5.07;;
4646;SDS011;2336;47.822;7.564;2023-01-19T13:51:18;5.20;;;4.70;;
4646;SDS011;2336;47.822;7.564;2023-01-19T13:53:51;5.13;;;4.67;;
4646;SDS011;2336;47.822;7.564;2023-01-19T13:56:20;4.90;;;4.40;;
4646;SDS011;2336;47.822;7.564;2023-01-19T14:01:39;5.23;;;4.83;;
4646;SDS011;2336;47.822;7.564;2023-01-19T14:06:55;6.23;;;5.67;;
4646;SDS011;2336;47.822;7.564;2023-01-19T14:09:23;6.93;;;6.30;;
4646;SDS011;2336;47.822;7.564;2023-01-19T14:12:03;5.90;;;5.57;;
4646;SDS011;2336;47.822;7.564;2023-01-19T14:14:33;5.03;;;4.73;;
4646;SDS011;2336;47.822;7.564;2023-01-19T14:16:59;5.80;;;5.30;;
4646;SDS011;2336;47.822;7.564;2023-01-19T14:19:27;5.77;;;5.27;;
4646;SDS011;2336;47.822;7.564;2023-01-19T14:21:58;6.10;;;5.50;;
4646;SDS011;2336;47.822;7.564;2023-01-19T14:24:26;6.10;;;5.60;;
4646;SDS011;2336;47.822;7.564;2023-01-19T14:27:06;5.10;;;4.70;;
4646;SDS011;2336;47.822;7.564;2023-01-19T14:29:36;6.13;;;5.50;;
4646;SDS011;2336;47.822;7.564;2023-01-19T14:32:04;6.23;;;4.97;;
4646;SDS011;2336;47.822;7.564;2023-01-19T14:34:37;7.33;;;6.60;;
4646;SDS011;2336;47.822;7.564;2023-01-19T14:37:12;13.00;;;9.47;;
4646;SDS011;2336;47.822;7.564;2023-01-19T14:39:45;11.20;;;9.20;;
4646;SDS011;2336;47.822;7.564;2023-01-19T14:42:14;9.63;;;8.53;;
4646;SDS011;2336;47.822;7.564;2023-01-19T14:44:44;10.50;;;9.40;;
4646;SDS011;2336;47.822;7.564;2023-01-19T14:47:33;9.40;;;8.00;;
4646;SDS011;2336;47.822;7.564;2023-01-19T14:50:07;16.10;;;14.47;;
4646;SDS011;2336;47.822;7.564;2023-01-19T14:52:42;7.90;;;6.90;;
4646;SDS011;2336;47.822;7.564;2023-01-19T14:55:17;11.70;;;10.70;;
4646;SDS011;2336;47.822;7.564;2023-01-19T14:57:46;9.33;;;7.97;;
4646;SDS011;2336;47.822;7.564;2023-01-19T15:00:13;6.77;;;6.27;;
4646;SDS011;2336;47.822;7.564;2023-01-19T15:02:41;6.53;;;6.03;;
4646;SDS011;2336;47.822;7.564;2023-01-19T15:05:10;10.50;;;9.50;;
4646;SDS011;2336;47.822;7.564;2023-01-19T15:07:37;7.10;;;6.50;;
4646;SDS011;2336;47.822;7.564;2023-01-19T15:10:08;9.83;;;8.93;;
4646;SDS011;2336;47.822;7.564;2023-01-19T15:12:40;12.00;;;9.40;;
4646;SDS011;2336;47.822;7.564;2023-01-19T15:15:11;5.90;;;5.50;;
4646;SDS011;2336;47.822;7.564;2023-01-19T15:17:42;6.00;;;5.60;;
4646;SDS011;2336;47.822;7.564;2023-01-19T15:20:14;9.07;;;6.90;;
4646;SDS011;2336;47.822;7.564;2023-01-19T15:22:42;7.27;;;6.30;;
4646;SDS011;2336;47.822;7.564;2023-01-19T15:25:11;7.40;;;6.67;;
4646;SDS011;2336;47.822;7.564;2023-01-19T15:27:39;6.13;;;5.63;;
4646;SDS011;2336;47.822;7.564;2023-01-19T15:30:11;7.60;;;5.87;;
4646;SDS011;2336;47.822;7.564;2023-01-19T15:32:40;6.53;;;5.90;;
4646;SDS011;2336;47.822;7.564;2023-01-19T15:35:11;6.87;;;6.37;;
4646;SDS011;2336;47.822;7.564;2023-01-19T15:37:40;6.37;;;5.97;;